createdAt,value
2022-11-24T00:00:17.664Z,5.82
2022-11-24T00:02:45.118Z,5.50
2022-11-24T00:05:12.348Z,5.32
2022-11-24T00:07:39.496Z,5.43
2022-11-24T00:10:06.880Z,4.70
2022-11-24T00:12:34.067Z,6.22
2022-11-24T00:15:01.259Z,5.45
2022-11-24T00:17:29.401Z,5.82
2022-11-24T00:19:56.561Z,5.05
2022-11-24T00:22:23.708Z,5.45
2022-11-24T00:24:51.001Z,5.70
2022-11-24T00:27:18.219Z,5.05
2022-11-24T00:29:45.374Z,5.05
2022-11-24T00:32:12.517Z,5.30
2022-11-24T00:34:39.697Z,4.90
2022-11-24T00:37:06.850Z,5.18
2022-11-24T00:39:33.945Z,5.15
2022-11-24T00:42:01.088Z,4.97
2022-11-24T00:44:28.259Z,4.90
2022-11-24T00:46:55.516Z,5.60
2022-11-24T00:49:22.680Z,4.97
2022-11-24T00:51:49.838Z,4.70
2022-11-24T00:54:16.983Z,4.93
2022-11-24T00:56:44.129Z,4.90
2022-11-24T00:59:11.279Z,4.70
2022-11-24T01:01:39.031Z,5.03
2022-11-24T01:04:06.635Z,4.97
2022-11-24T01:06:35.679Z,5.20
2022-11-24T01:09:03.346Z,4.80
2022-11-24T01:11:54.251Z,5.65
2022-11-24T01:14:22.723Z,5.03
2022-11-24T01:16:49.868Z,4.90
2022-11-24T01:19:17.140Z,5.25
2022-11-24T01:21:44.262Z,5.00
2022-11-24T01:24:11.865Z,4.70
2022-11-24T01:26:39.068Z,4.65
2022-11-24T01:29:06.500Z,5.18
2022-11-24T01:31:33.703Z,4.82
2022-11-24T01:34:00.841Z,4.75
2022-11-24T01:36:27.974Z,5.35
2022-11-24T01:38:55.134Z,5.97
2022-11-24T01:41:23.729Z,4.82
2022-11-24T01:43:52.170Z,5.07
2022-11-24T01:46:25.259Z,5.45
2022-11-24T01:49:10.900Z,5.55
2022-11-24T01:51:40.872Z,4.97
2022-11-24T01:54:10.329Z,5.35
2022-11-24T01:56:39.654Z,5.20
2022-11-24T01:59:08.237Z,4.90
2022-11-24T02:01:35.545Z,5.30
2022-11-24T02:04:03.248Z,5.10
2022-11-24T02:06:32.518Z,5.63
2022-11-24T02:09:01.786Z,5.18
2022-11-24T02:11:30.258Z,5.50
2022-11-24T02:13:57.923Z,5.40
2022-11-24T02:16:25.123Z,5.60
2022-11-24T02:18:52.353Z,5.47
2022-11-24T02:21:19.664Z,4.95
2022-11-24T02:23:49.628Z,5.90
2022-11-24T02:26:22.212Z,5.70
2022-11-24T02:28:49.584Z,5.32
2022-11-24T02:31:16.806Z,5.50
2022-11-24T02:33:44.030Z,5.60
2022-11-24T02:36:11.347Z,5.47
2022-11-24T02:38:38.489Z,5.43
2022-11-24T02:41:11.079Z,5.80
2022-11-24T02:43:43.937Z,5.55
2022-11-24T02:46:11.316Z,5.35
2022-11-24T02:48:38.928Z,5.72
2022-11-24T02:51:06.298Z,5.15
2022-11-24T02:53:33.487Z,5.13
2022-11-24T02:56:00.620Z,6.05
2022-11-24T02:58:28.009Z,5.93
2022-11-24T03:00:57.204Z,5.05
2022-11-24T03:03:24.907Z,5.28
2022-11-24T03:05:52.157Z,4.85
2022-11-24T03:08:19.305Z,5.95
2022-11-24T03:10:47.954Z,5.15
2022-11-24T03:13:15.195Z,5.25
2022-11-24T03:15:42.466Z,5.72
2022-11-24T03:18:09.811Z,5.35
2022-11-24T03:20:36.964Z,5.05
2022-11-24T03:23:04.215Z,5.47
2022-11-24T03:25:31.485Z,5.55
2022-11-24T03:27:58.672Z,5.07
2022-11-24T03:30:25.842Z,5.97
2022-11-24T03:32:53.755Z,5.43
2022-11-24T03:35:21.444Z,5.78
2022-11-24T03:37:48.824Z,6.03
2022-11-24T03:40:16.209Z,5.43
2022-11-24T03:42:43.356Z,5.38
2022-11-24T03:45:44.293Z,5.43
2022-11-24T03:47:57.728Z,5.57
2022-11-24T03:50:24.944Z,5.10
2022-11-24T03:52:52.112Z,5.78
2022-11-24T03:55:19.275Z,5.10
2022-11-24T03:57:46.476Z,5.43
2022-11-24T04:00:13.809Z,5.18
2022-11-24T04:02:40.982Z,5.38
2022-11-24T04:05:08.647Z,6.07
2022-11-24T04:07:36.002Z,5.50
2022-11-24T04:10:03.272Z,5.50
2022-11-24T04:12:45.721Z,5.22
2022-11-24T04:15:17.453Z,5.85
2022-11-24T04:17:45.261Z,5.75
2022-11-24T04:20:13.195Z,5.47
2022-11-24T04:22:40.609Z,5.38
2022-11-24T04:25:08.530Z,5.55
2022-11-24T04:27:36.117Z,5.40
2022-11-24T04:30:03.650Z,5.25
2022-11-24T04:32:30.828Z,5.68
2022-11-24T04:34:58.099Z,5.57
2022-11-24T04:37:25.215Z,6.25
2022-11-24T04:39:52.523Z,5.40
2022-11-24T04:42:19.683Z,5.57
2022-11-24T04:44:47.104Z,5.60
2022-11-24T04:47:19.066Z,5.47
2022-11-24T04:49:47.527Z,5.75
2022-11-24T04:52:14.697Z,5.40
2022-11-24T04:54:41.958Z,6.13
2022-11-24T04:57:12.297Z,5.40
2022-11-24T04:59:39.534Z,5.88
2022-11-24T05:02:06.747Z,5.68
2022-11-24T05:04:34.347Z,5.68
2022-11-24T05:07:01.733Z,5.72
2022-11-24T05:09:41.958Z,5.15
2022-11-24T05:12:16.063Z,6.10
2022-11-24T05:14:43.261Z,5.50
2022-11-24T05:17:10.418Z,6.18
2022-11-24T05:19:37.583Z,5.70
2022-11-24T05:22:04.706Z,5.47
2022-11-24T05:24:32.279Z,5.22
2022-11-24T05:26:59.720Z,5.68
2022-11-24T05:29:26.855Z,5.35
2022-11-24T05:31:54.014Z,5.32
2022-11-24T05:34:21.593Z,5.57
2022-11-24T05:36:54.830Z,5.18
2022-11-24T05:39:22.029Z,5.30
2022-11-24T05:41:49.129Z,5.00
2022-11-24T05:44:16.243Z,5.13
2022-11-24T05:46:43.516Z,5.13
2022-11-24T05:49:10.757Z,5.80
2022-11-24T05:51:37.962Z,5.13
2022-11-24T05:54:05.126Z,4.82
2022-11-24T05:56:32.334Z,5.38
2022-11-24T05:58:59.478Z,5.45
2022-11-24T06:01:26.635Z,4.93
2022-11-24T06:03:53.912Z,5.60
2022-11-24T06:06:21.118Z,5.93
2022-11-24T06:08:48.274Z,5.65
2022-11-24T06:11:18.602Z,6.30
2022-11-24T06:13:46.530Z,6.80
2022-11-24T06:16:14.273Z,6.10
2022-11-24T06:18:41.809Z,6.88
2022-11-24T06:21:11.611Z,6.90
2022-11-24T06:23:39.334Z,6.60
2022-11-24T06:26:07.082Z,6.75
2022-11-24T06:28:34.257Z,7.53
2022-11-24T06:31:02.540Z,8.05
2022-11-24T06:33:33.724Z,8.82
2022-11-24T06:36:02.158Z,10.10
2022-11-24T06:38:29.459Z,9.32
2022-11-24T06:41:03.562Z,10.75
2022-11-24T06:43:34.335Z,9.85
2022-11-24T06:46:01.621Z,8.77
2022-11-24T06:48:28.973Z,9.23
2022-11-24T06:50:59.780Z,9.20
2022-11-24T06:53:27.103Z,9.82
2022-11-24T06:55:54.332Z,9.98
2022-11-24T06:58:21.444Z,9.73
2022-11-24T07:00:48.626Z,9.43
2022-11-24T07:03:16.950Z,8.77
2022-11-24T07:05:44.306Z,9.70
2022-11-24T07:08:17.393Z,8.95
2022-11-24T07:10:45.488Z,8.95
2022-11-24T07:13:12.716Z,9.63
2022-11-24T07:15:39.872Z,10.00
2022-11-24T07:18:07.088Z,10.50
2022-11-24T07:20:34.201Z,11.35
2022-11-24T07:23:01.309Z,11.30
2022-11-24T07:25:28.505Z,12.02
2022-11-24T07:27:59.326Z,11.98
2022-11-24T07:30:27.377Z,12.32
2022-11-24T07:33:01.155Z,12.00
2022-11-24T07:35:28.872Z,11.82
2022-11-24T07:37:56.853Z,11.82
2022-11-24T07:40:24.716Z,11.68
2022-11-24T07:42:51.969Z,10.90
2022-11-24T07:45:19.064Z,12.38
2022-11-24T07:47:46.375Z,12.48
2022-11-24T07:50:13.930Z,10.98
2022-11-24T07:52:41.225Z,13.00
2022-11-24T07:55:08.727Z,11.88
2022-11-24T07:57:35.956Z,11.75
2022-11-24T08:00:04.204Z,12.23
2022-11-24T08:02:31.322Z,11.98
2022-11-24T08:04:58.566Z,11.35
2022-11-24T08:07:25.811Z,11.82
2022-11-24T08:09:53.054Z,11.07
2022-11-24T08:12:23.538Z,14.30
2022-11-24T08:14:51.118Z,15.15
2022-11-24T08:17:18.713Z,13.88
2022-11-24T08:19:45.849Z,14.73
2022-11-24T08:22:13.019Z,14.85
2022-11-24T08:24:46.195Z,15.93
2022-11-24T08:27:13.874Z,14.73
2022-11-24T08:29:41.129Z,14.65
2022-11-24T08:32:09.264Z,14.05
2022-11-24T08:34:36.614Z,13.52
2022-11-24T08:37:04.862Z,13.98
2022-11-24T08:39:32.186Z,14.82
2022-11-24T08:41:59.417Z,14.13
2022-11-24T08:44:28.629Z,14.52
2022-11-24T08:46:55.970Z,13.50
2022-11-24T08:49:23.312Z,13.73
2022-11-24T08:51:51.278Z,14.70
2022-11-24T08:54:18.908Z,13.63
2022-11-24T08:56:47.024Z,14.10
2022-11-24T08:59:14.466Z,37.50
2022-11-24T09:01:42.038Z,27.80
2022-11-24T09:04:09.343Z,20.95
2022-11-24T09:06:36.566Z,21.67
2022-11-24T09:09:04.079Z,22.35
2022-11-24T09:11:31.274Z,20.50
2022-11-24T09:13:58.457Z,21.02
2022-11-24T09:16:27.049Z,19.27
2022-11-24T09:18:58.937Z,19.63
2022-11-24T09:21:26.093Z,19.73
2022-11-24T09:23:54.253Z,19.00
2022-11-24T09:26:29.164Z,19.17
2022-11-24T09:28:57.143Z,19.80
2022-11-24T09:31:25.594Z,17.88
2022-11-24T09:33:53.123Z,18.83
2022-11-24T09:36:20.728Z,19.25
2022-11-24T09:38:47.876Z,17.38
2022-11-24T09:41:36.627Z,17.80
2022-11-24T09:44:22.708Z,16.83
2022-11-24T09:46:50.332Z,16.90
2022-11-24T09:49:25.325Z,16.75
2022-11-24T09:51:53.622Z,16.13
2022-11-24T09:54:22.483Z,16.33
2022-11-24T09:56:51.212Z,15.88
2022-11-24T09:59:25.187Z,15.95
2022-11-24T10:01:53.136Z,15.13
2022-11-24T10:04:21.725Z,16.48
2022-11-24T10:06:48.872Z,15.65
2022-11-24T10:09:19.000Z,15.65
2022-11-24T10:11:58.641Z,15.27
2022-11-24T10:14:44.433Z,15.32
2022-11-24T10:17:37.393Z,14.82
2022-11-24T10:20:09.544Z,14.73
2022-11-24T10:22:52.373Z,14.07
2022-11-24T10:25:21.871Z,15.57
2022-11-24T10:27:51.102Z,14.43
2022-11-24T10:30:20.402Z,14.63
2022-11-24T10:32:49.187Z,14.43
2022-11-24T10:35:18.112Z,14.85
2022-11-24T10:37:52.549Z,13.70
2022-11-24T10:40:55.496Z,14.45
2022-11-24T10:43:12.788Z,14.38
2022-11-24T10:45:40.446Z,14.40
2022-11-24T10:48:09.700Z,13.63
2022-11-24T10:50:39.347Z,14.40
2022-11-24T10:53:09.351Z,15.02
2022-11-24T10:55:55.645Z,15.27
2022-11-24T11:00:50.159Z,15.63
2022-11-24T11:03:19.712Z,14.95
2022-11-24T11:05:52.010Z,14.10
2022-11-24T11:08:21.108Z,13.95
2022-11-24T11:10:49.858Z,14.05
2022-11-24T11:13:24.405Z,13.75
2022-11-24T11:15:51.875Z,14.13
2022-11-24T11:18:20.034Z,15.15
2022-11-24T11:20:51.829Z,13.98
2022-11-24T11:23:37.197Z,16.33
2022-11-24T11:26:28.324Z,16.10
2022-11-24T11:31:15.672Z,15.18
2022-11-24T11:34:46.025Z,14.82
2022-11-24T11:37:17.134Z,15.65
2022-11-24T11:39:49.013Z,15.50
2022-11-24T11:42:53.788Z,15.38
2022-11-24T11:45:20.960Z,19.23
2022-11-24T11:48:03.369Z,18.95
2022-11-24T11:50:47.490Z,19.38
2022-11-24T11:53:45.697Z,19.80
2022-11-24T11:56:20.133Z,18.90
2022-11-24T11:58:47.615Z,18.20
2022-11-24T12:01:27.206Z,17.90
2022-11-24T12:04:00.971Z,17.20
2022-11-24T12:06:28.254Z,17.27
2022-11-24T12:09:19.397Z,18.52
2022-11-24T12:12:01.294Z,17.55
2022-11-24T12:14:31.502Z,17.17
2022-11-24T12:16:58.585Z,17.98
2022-11-24T12:19:52.060Z,20.00
2022-11-24T12:22:33.768Z,22.77
2022-11-24T12:25:15.129Z,21.17
2022-11-24T12:27:48.541Z,20.60
2022-11-24T12:30:17.578Z,19.88
2022-11-24T12:33:03.224Z,19.83
2022-11-24T12:35:34.922Z,19.88
2022-11-24T12:38:08.121Z,19.00
2022-11-24T12:40:46.688Z,18.00
2022-11-24T12:43:20.047Z,17.88
2022-11-24T12:45:53.290Z,16.98
2022-11-24T12:48:29.423Z,16.60
2022-11-24T12:50:57.700Z,14.60
2022-11-24T12:53:24.826Z,14.88
2022-11-24T12:55:52.175Z,14.98
2022-11-24T12:58:38.187Z,15.50
2022-11-24T13:01:23.765Z,17.23
2022-11-24T13:03:53.780Z,17.02
2022-11-24T13:06:29.238Z,18.08
2022-11-24T13:08:56.994Z,16.42
2022-11-24T13:11:24.277Z,16.92
2022-11-24T13:14:01.529Z,17.20
2022-11-24T13:16:36.083Z,16.80
2022-11-24T13:19:15.858Z,16.75
2022-11-24T13:21:45.394Z,15.75
2022-11-24T13:24:19.485Z,15.98
2022-11-24T13:27:16.473Z,17.57
2022-11-24T13:29:44.451Z,16.20
2022-11-24T13:32:14.777Z,15.65
2022-11-24T13:34:49.803Z,15.98
2022-11-24T13:37:32.076Z,15.45
2022-11-24T13:40:17.065Z,15.23
2022-11-24T13:42:56.492Z,14.15
2022-11-24T13:45:42.488Z,14.60
2022-11-24T13:48:22.491Z,14.15
2022-11-24T13:51:01.690Z,12.65
2022-11-24T13:53:41.149Z,13.93
2022-11-24T13:56:14.409Z,13.32
2022-11-24T13:58:45.858Z,13.70
2022-11-24T14:01:29.667Z,14.00
2022-11-24T14:07:07.291Z,13.35
2022-11-24T14:09:35.255Z,14.07
2022-11-24T14:12:19.266Z,13.88
2022-11-24T14:14:50.622Z,14.50
2022-11-24T14:17:19.865Z,13.68
2022-11-24T14:19:48.304Z,13.80
2022-11-24T14:22:21.397Z,16.05
2022-11-24T14:24:56.318Z,17.33
2022-11-24T14:27:40.115Z,17.40
2022-11-24T14:30:13.636Z,17.27
2022-11-24T14:32:42.189Z,15.93
2022-11-24T14:35:29.622Z,16.58
2022-11-24T14:37:57.235Z,15.60
2022-11-24T14:40:39.744Z,15.80
2022-11-24T14:43:07.473Z,16.40
2022-11-24T14:45:35.207Z,15.57
2022-11-24T14:48:02.376Z,17.38
2022-11-24T14:50:29.671Z,14.95
2022-11-24T14:52:57.623Z,14.85
2022-11-24T14:55:24.787Z,14.88
2022-11-24T14:57:52.104Z,14.90
2022-11-24T15:00:21.335Z,14.48
2022-11-24T15:02:55.451Z,14.77
2022-11-24T15:05:23.737Z,14.23
2022-11-24T15:07:52.591Z,15.35
2022-11-24T15:10:38.611Z,14.98
2022-11-24T15:13:07.886Z,15.65
2022-11-24T15:15:36.518Z,13.40
2022-11-24T15:18:04.721Z,14.15
2022-11-24T15:20:36.859Z,14.48
2022-11-24T15:23:23.052Z,16.08
2022-11-24T15:25:51.060Z,13.63
2022-11-24T15:28:18.294Z,14.68
2022-11-24T15:30:45.423Z,14.93
2022-11-24T15:33:16.870Z,13.45
2022-11-24T15:35:44.104Z,15.23
2022-11-24T15:38:11.355Z,14.65
2022-11-24T15:40:39.016Z,13.43
2022-11-24T15:43:32.543Z,13.38
2022-11-24T15:46:00.513Z,14.00
2022-11-24T15:48:27.784Z,13.75
2022-11-24T15:50:55.558Z,13.30
2022-11-24T15:53:24.500Z,12.88
2022-11-24T15:55:52.017Z,13.18
2022-11-24T15:58:19.195Z,13.60
2022-11-24T16:00:46.368Z,13.52
2022-11-24T16:03:45.288Z,13.68
2022-11-24T16:06:00.846Z,12.13
2022-11-24T16:08:28.037Z,12.65
2022-11-24T16:10:55.925Z,12.45
2022-11-24T16:13:23.281Z,12.88
2022-11-24T16:15:50.458Z,12.20
2022-11-24T16:18:17.701Z,11.73
2022-11-24T16:20:44.861Z,12.25
2022-11-24T16:23:11.962Z,12.27
2022-11-24T16:25:39.184Z,13.25
2022-11-24T16:28:06.445Z,12.02
2022-11-24T16:30:33.703Z,12.75
2022-11-24T16:33:03.788Z,11.55
2022-11-24T16:35:30.952Z,12.50
2022-11-24T16:37:58.131Z,11.95
2022-11-24T16:40:25.422Z,11.55
2022-11-24T16:42:53.127Z,12.90
2022-11-24T16:45:20.255Z,12.52
2022-11-24T16:47:47.423Z,13.30
2022-11-24T16:50:14.648Z,11.63
2022-11-24T16:52:41.867Z,12.40
2022-11-24T16:55:09.773Z,11.43
2022-11-24T16:57:37.267Z,12.68
2022-11-24T17:00:05.546Z,11.60
2022-11-24T17:02:33.894Z,12.05
2022-11-24T17:05:01.167Z,11.27
2022-11-24T17:07:28.412Z,12.75
2022-11-24T17:09:55.919Z,11.38
2022-11-24T17:12:23.575Z,12.10
2022-11-24T17:15:16.438Z,11.60
2022-11-24T17:17:55.151Z,11.93
2022-11-24T17:20:25.325Z,11.55
2022-11-24T17:22:52.455Z,12.73
2022-11-24T17:25:19.574Z,11.50
2022-11-24T17:27:46.717Z,13.43
2022-11-24T17:30:14.186Z,12.52
2022-11-24T17:32:41.287Z,12.30
2022-11-24T17:35:08.650Z,11.50
2022-11-24T17:37:37.027Z,12.30
2022-11-24T17:40:27.398Z,11.98
2022-11-24T17:42:51.712Z,10.90
2022-11-24T17:45:18.879Z,11.95
2022-11-24T17:47:46.052Z,11.98
2022-11-24T17:50:13.294Z,11.88
2022-11-24T17:52:40.444Z,10.85
2022-11-24T17:55:07.652Z,11.25
2022-11-24T17:57:34.787Z,11.75
2022-11-24T18:00:01.987Z,10.82
2022-11-24T18:02:29.193Z,10.80
2022-11-24T18:04:56.455Z,11.65
2022-11-24T18:07:23.708Z,10.88
2022-11-24T18:09:50.908Z,10.95
2022-11-24T18:12:18.160Z,10.40
2022-11-24T18:14:45.342Z,11.15
2022-11-24T18:17:12.498Z,11.40
2022-11-24T18:19:39.703Z,11.73
2022-11-24T18:22:06.887Z,11.40
2022-11-24T18:24:34.086Z,10.70
2022-11-24T18:27:01.271Z,13.00
2022-11-24T18:29:28.440Z,11.15
2022-11-24T18:31:55.694Z,12.10
2022-11-24T18:34:27.604Z,10.93
2022-11-24T18:36:54.716Z,10.57
2022-11-24T18:39:21.975Z,11.98
2022-11-24T18:41:49.136Z,11.05
2022-11-24T18:44:16.303Z,11.25
2022-11-24T18:46:43.415Z,10.90
2022-11-24T18:49:10.642Z,11.95
2022-11-24T18:51:37.836Z,10.82
2022-11-24T18:54:05.540Z,10.63
2022-11-24T18:56:32.811Z,10.88
2022-11-24T18:59:00.030Z,11.63
2022-11-24T19:01:28.705Z,11.18
2022-11-24T19:03:57.202Z,11.40
2022-11-24T19:06:31.848Z,10.32
2022-11-24T19:08:59.830Z,10.88
2022-11-24T19:11:34.102Z,10.75
2022-11-24T19:14:01.722Z,10.90
2022-11-24T19:16:28.995Z,10.27
2022-11-24T19:19:00.080Z,11.07
2022-11-24T19:21:27.958Z,11.25
2022-11-24T19:23:58.543Z,9.57
2022-11-24T19:26:28.599Z,10.77
2022-11-24T19:28:55.853Z,9.52
2022-11-24T19:31:23.095Z,9.32
2022-11-24T19:33:52.752Z,9.23
2022-11-24T19:36:20.816Z,9.18
2022-11-24T19:38:55.291Z,10.13
2022-11-24T19:41:23.601Z,10.02
2022-11-24T19:43:53.320Z,9.73
2022-11-24T19:46:20.814Z,9.47
2022-11-24T19:48:54.499Z,9.80
2022-11-24T19:51:22.703Z,9.55
2022-11-24T19:53:50.084Z,9.52
2022-11-24T19:56:18.825Z,10.32
2022-11-24T19:58:46.053Z,9.75
2022-11-24T20:01:14.751Z,8.77
2022-11-24T20:03:42.826Z,10.75
2022-11-24T20:06:11.237Z,10.50
2022-11-24T20:08:39.228Z,9.13
2022-11-24T20:11:07.448Z,9.98
2022-11-24T20:13:35.272Z,10.30
2022-11-24T20:16:05.381Z,10.45
2022-11-24T20:18:37.560Z,10.10
2022-11-24T20:21:11.482Z,9.23
2022-11-24T20:23:38.971Z,10.40
2022-11-24T20:26:09.676Z,10.10
2022-11-24T20:28:36.906Z,10.45
2022-11-24T20:31:05.043Z,10.20
2022-11-24T20:33:32.242Z,10.75
2022-11-24T20:36:03.814Z,10.63
2022-11-24T20:38:30.983Z,11.18
2022-11-24T20:41:09.225Z,10.48
2022-11-24T20:43:37.266Z,11.05
2022-11-24T20:46:06.303Z,10.23
2022-11-24T20:48:34.493Z,10.68
2022-11-24T20:51:27.771Z,10.32
2022-11-24T20:53:56.630Z,9.90
2022-11-24T20:56:24.774Z,9.80
2022-11-24T20:58:52.259Z,9.80
2022-11-24T21:01:21.399Z,9.35
2022-11-24T21:03:52.393Z,9.80
2022-11-24T21:06:19.526Z,10.13
2022-11-24T21:08:46.699Z,9.60
2022-11-24T21:11:15.155Z,9.73
2022-11-24T21:13:43.868Z,12.30
2022-11-24T21:16:24.985Z,11.07
2022-11-24T21:18:53.858Z,11.18
2022-11-24T21:21:21.915Z,10.52
2022-11-24T21:23:49.658Z,10.82
2022-11-24T21:26:18.117Z,9.93
2022-11-24T21:28:46.291Z,11.48
2022-11-24T21:31:17.821Z,9.82
2022-11-24T21:33:46.223Z,10.10
2022-11-24T21:36:14.645Z,10.70
2022-11-24T21:38:42.710Z,11.45
2022-11-24T21:41:10.996Z,10.90
2022-11-24T21:43:38.653Z,9.80
2022-11-24T21:46:07.253Z,10.95
2022-11-24T21:48:35.589Z,10.23
2022-11-24T21:51:03.754Z,11.10
2022-11-24T21:53:31.938Z,11.05
2022-11-24T21:56:01.003Z,11.68
2022-11-24T21:58:28.797Z,10.43
2022-11-24T22:00:57.050Z,10.68
2022-11-24T22:03:24.344Z,10.73
2022-11-24T22:05:57.850Z,11.80
2022-11-24T22:08:25.599Z,10.45
2022-11-24T22:10:53.133Z,11.27
2022-11-24T22:13:21.075Z,10.68
2022-11-24T22:15:48.198Z,10.75
2022-11-24T22:18:15.317Z,10.80
2022-11-24T22:20:42.444Z,11.27
2022-11-24T22:23:10.226Z,11.52
2022-11-24T22:25:37.460Z,10.90
2022-11-24T22:28:04.613Z,10.65
2022-11-24T22:30:31.825Z,11.13
2022-11-24T22:32:59.004Z,10.35
2022-11-24T22:35:26.126Z,11.48
2022-11-24T22:37:53.252Z,11.20
2022-11-24T22:40:20.368Z,10.60
2022-11-24T22:42:47.575Z,11.18
2022-11-24T22:45:14.726Z,10.15
2022-11-24T22:47:41.829Z,10.10
2022-11-24T22:50:09.231Z,10.85
2022-11-24T22:52:37.441Z,9.70
2022-11-24T22:55:04.697Z,9.38
2022-11-24T22:57:31.856Z,9.80
2022-11-24T22:59:58.997Z,9.60
2022-11-24T23:02:26.146Z,9.80
2022-11-24T23:04:54.861Z,10.85
2022-11-24T23:07:22.098Z,10.02
2022-11-24T23:09:49.310Z,10.85
2022-11-24T23:12:16.550Z,9.82
2022-11-24T23:14:43.663Z,9.07
2022-11-24T23:17:10.873Z,10.57
2022-11-24T23:19:38.224Z,9.65
2022-11-24T23:22:05.401Z,10.32
2022-11-24T23:24:33.168Z,9.77
2022-11-24T23:27:00.594Z,10.48
2022-11-24T23:29:27.756Z,9.98
2022-11-24T23:31:55.035Z,10.45
2022-11-24T23:34:22.292Z,10.10
2022-11-24T23:36:49.445Z,9.85
2022-11-24T23:39:16.564Z,10.07
2022-11-24T23:41:43.759Z,9.45
2022-11-24T23:44:10.867Z,8.93
2022-11-24T23:46:38.034Z,9.18
2022-11-24T23:49:05.205Z,9.57
2022-11-24T23:51:33.147Z,9.30
2022-11-24T23:54:00.724Z,9.70
2022-11-24T23:56:31.519Z,9.40
2022-11-24T23:58:59.181Z,10.25
